createdAt,value
2018-11-21T00:00:28.626Z,1035.31
2018-11-21T00:01:28.607Z,1035.34
2018-11-21T00:02:28.592Z,1035.39
2018-11-21T00:03:28.577Z,1035.34
2018-11-21T00:04:28.567Z,1035.37
2018-11-21T00:05:28.551Z,1035.28
2018-11-21T00:06:28.535Z,1035.31
2018-11-21T00:07:28.521Z,1035.25
2018-11-21T00:08:28.510Z,1035.24
2018-11-21T00:09:28.487Z,1035.25
2018-11-21T00:10:28.476Z,1035.18
2018-11-21T00:11:28.458Z,1035.22
2018-11-21T00:12:28.445Z,1035.24
2018-11-21T00:13:28.427Z,1035.23
2018-11-21T00:14:28.417Z,1035.26
2018-11-21T00:15:28.397Z,1035.24
2018-11-21T00:16:28.389Z,1035.25
2018-11-21T00:17:28.367Z,1035.26
2018-11-21T00:18:28.361Z,1035.23
2018-11-21T00:19:28.337Z,1035.23
2018-11-21T00:20:28.330Z,1035.29
2018-11-21T00:21:28.313Z,1035.27
2018-11-21T00:22:28.294Z,1035.34
2018-11-21T00:23:28.278Z,1035.25
2018-11-21T00:24:28.263Z,1035.4
2018-11-21T00:25:28.252Z,1035.35
2018-11-21T00:26:28.234Z,1035.4
2018-11-21T00:27:28.222Z,1035.4
2018-11-21T00:28:28.204Z,1035.41
2018-11-21T00:29:28.193Z,1035.5
2018-11-21T00:30:28.174Z,1035.54
2018-11-21T00:31:28.163Z,1035.44
2018-11-21T00:32:28.144Z,1035.46
2018-11-21T00:33:28.133Z,1035.54
2018-11-21T00:34:28.113Z,1035.48
2018-11-21T00:35:28.099Z,1035.48
2018-11-21T00:36:28.090Z,1035.5
2018-11-21T00:37:28.073Z,1035.53
2018-11-21T00:38:28.053Z,1035.49
2018-11-21T00:39:28.039Z,1035.5
2018-11-21T00:40:28.024Z,1035.47
2018-11-21T00:41:28.013Z,1035.46
2018-11-21T00:42:27.993Z,1035.43
2018-11-21T00:43:27.982Z,1035.42
2018-11-21T00:44:27.964Z,1035.47
2018-11-21T00:45:27.952Z,1035.4
2018-11-21T00:46:27.933Z,1035.44
2018-11-21T00:47:27.928Z,1035.37
2018-11-21T00:48:27.906Z,1035.42
2018-11-21T00:49:27.893Z,1035.42
2018-11-21T00:50:27.878Z,1035.4
2018-11-21T00:51:27.862Z,1035.42
2018-11-21T00:52:27.846Z,1035.35
2018-11-21T00:53:27.828Z,1035.4
2018-11-21T00:54:27.818Z,1035.36
2018-11-21T00:55:27.803Z,1035.38
2018-11-21T00:56:27.787Z,1035.41
2018-11-21T00:57:27.770Z,1035.41
2018-11-21T00:58:27.757Z,1035.39
2018-11-21T00:59:27.743Z,1035.38
2018-11-21T01:00:27.723Z,1035.42
2018-11-21T01:01:27.712Z,1035.44
2018-11-21T01:02:27.693Z,1035.35
2018-11-21T01:03:27.682Z,1035.52
2018-11-21T01:04:27.663Z,1035.41
2018-11-21T01:05:27.652Z,1035.44
2018-11-21T01:06:27.639Z,1035.55
2018-11-21T01:07:27.622Z,1035.51
2018-11-21T01:08:27.602Z,1035.49
2018-11-21T01:09:27.588Z,1035.55
2018-11-21T01:10:27.577Z,1035.5
2018-11-21T01:11:27.561Z,1035.55
2018-11-21T01:12:27.542Z,1035.51
2018-11-21T01:13:27.533Z,1035.53
2018-11-21T01:14:27.512Z,1035.48
2018-11-21T01:15:27.501Z,1035.51
2018-11-21T01:16:27.482Z,1035.47
2018-11-21T01:17:27.472Z,1035.5
2018-11-21T01:18:27.455Z,1035.56
2018-11-21T01:19:27.440Z,1035.5
2018-11-21T01:20:27.423Z,1035.52
2018-11-21T01:21:27.411Z,1035.59
2018-11-21T01:22:27.395Z,1035.55
2018-11-21T01:23:27.380Z,1035.59
2018-11-21T01:24:27.361Z,1035.56
2018-11-21T01:25:27.349Z,1035.54
2018-11-21T01:26:27.330Z,1035.55
2018-11-21T01:27:27.387Z,1035.53
2018-11-21T01:28:27.300Z,1035.52
2018-11-21T01:29:27.292Z,1035.51
2018-11-21T01:30:27.269Z,1035.48
2018-11-21T01:31:27.259Z,1035.45
2018-11-21T01:32:27.490Z,1035.49
2018-11-21T01:33:27.236Z,1035.51
2018-11-21T01:34:27.209Z,1035.43
2018-11-21T01:35:27.199Z,1035.49
2018-11-21T01:36:27.178Z,1035.49
2018-11-21T01:37:27.169Z,1035.49
2018-11-21T01:38:27.152Z,1035.47
2018-11-21T01:39:27.139Z,1035.49
2018-11-21T01:40:27.118Z,1035.48
2018-11-21T01:41:27.103Z,1035.49
2018-11-21T01:42:27.092Z,1035.5
2018-11-21T01:43:27.078Z,1035.48
2018-11-21T01:44:27.061Z,1035.43
2018-11-21T01:45:27.044Z,1035.38
2018-11-21T01:46:27.033Z,1035.34
2018-11-21T01:47:27.012Z,1035.42
2018-11-21T01:48:27.001Z,1035.41
2018-11-21T01:49:26.982Z,1035.48
2018-11-21T01:50:26.972Z,1035.49
2018-11-21T01:51:26.955Z,1035.5
2018-11-21T01:52:26.937Z,1035.56
2018-11-21T01:53:26.926Z,1035.53
2018-11-21T01:54:26.911Z,1035.55
2018-11-21T01:55:26.899Z,1035.57
2018-11-21T01:56:26.877Z,1035.56
2018-11-21T01:57:26.863Z,1035.54
2018-11-21T01:58:26.853Z,1035.55
2018-11-21T01:59:26.836Z,1035.46
2018-11-21T02:00:26.822Z,1035.42
2018-11-21T02:01:26.803Z,1035.42
2018-11-21T02:02:26.792Z,1035.52
2018-11-21T02:03:26.772Z,1035.41
2018-11-21T02:04:26.762Z,1035.45
2018-11-21T02:05:26.742Z,1035.47
2018-11-21T02:06:26.730Z,1035.46
2018-11-21T02:07:26.712Z,1035.46
2018-11-21T02:08:26.701Z,1035.51
2018-11-21T02:09:26.681Z,1035.44
2018-11-21T02:10:26.666Z,1035.5
2018-11-21T02:11:26.653Z,1035.54
2018-11-21T02:12:26.642Z,1035.53
2018-11-21T02:13:26.625Z,1035.58
2018-11-21T02:14:26.605Z,1035.62
2018-11-21T02:15:26.591Z,1035.56
2018-11-21T02:16:26.579Z,1035.58
2018-11-21T02:17:26.560Z,1035.6
2018-11-21T02:18:26.549Z,1035.6
2018-11-21T02:19:26.534Z,1035.67
2018-11-21T02:20:26.519Z,1035.68
2018-11-21T02:21:26.500Z,1035.64
2018-11-21T02:22:26.489Z,1035.76
2018-11-21T02:23:26.470Z,1035.71
2018-11-21T02:24:26.476Z,1035.63
2018-11-21T02:25:26.439Z,1035.68
2018-11-21T02:26:26.424Z,1035.71
2018-11-21T02:27:26.407Z,1035.76
2018-11-21T02:28:26.397Z,1035.66
2018-11-21T02:29:26.382Z,1035.79
2018-11-21T02:30:26.364Z,1035.74
2018-11-21T02:31:26.347Z,1035.82
2018-11-21T02:32:26.333Z,1035.8
2018-11-21T02:33:26.321Z,1035.77
2018-11-21T02:34:26.303Z,1035.74
2018-11-21T02:35:26.291Z,1035.8
2018-11-21T02:36:26.271Z,1035.78
2018-11-21T02:37:26.272Z,1035.77
2018-11-21T02:38:26.239Z,1035.76
2018-11-21T02:39:26.235Z,1035.8
2018-11-21T02:40:26.209Z,1035.81
2018-11-21T02:41:26.199Z,1035.74
2018-11-21T02:42:26.178Z,1035.8
2018-11-21T02:43:26.170Z,1035.78
2018-11-21T02:44:26.153Z,1035.82
2018-11-21T02:45:26.139Z,1035.91
2018-11-21T02:46:26.118Z,1035.86
2018-11-21T02:47:26.103Z,1035.86
2018-11-21T02:48:26.088Z,1035.83
2018-11-21T02:49:26.076Z,1035.89
2018-11-21T02:50:26.057Z,1035.9
2018-11-21T02:51:26.046Z,1035.91
2018-11-21T02:52:26.026Z,1035.88
2018-11-21T02:53:26.015Z,1035.91
2018-11-21T02:54:25.995Z,1035.88
2018-11-21T02:55:25.985Z,1035.91
2018-11-21T02:56:25.965Z,1035.9
2018-11-21T02:57:25.953Z,1035.92
2018-11-21T02:58:25.938Z,1035.93
2018-11-21T02:59:25.923Z,1035.95
2018-11-21T03:00:25.903Z,1036.03
2018-11-21T03:01:25.887Z,1036.01
2018-11-21T03:02:25.877Z,1036.06
2018-11-21T03:03:25.861Z,1036.04
2018-11-21T03:04:25.852Z,1036.03
2018-11-21T03:05:25.827Z,1035.99
2018-11-21T03:06:25.815Z,1035.99
2018-11-21T03:07:25.800Z,1036.02
2018-11-21T03:08:25.779Z,1036.01
2018-11-21T03:09:25.769Z,1036.02
2018-11-21T03:10:25.751Z,1036.02
2018-11-21T03:11:25.737Z,1036.06
2018-11-21T03:12:25.718Z,1036.07
2018-11-21T03:13:28.210Z,1036.1
2018-11-21T03:14:25.692Z,1036.08
2018-11-21T03:15:25.676Z,1036.11
2018-11-21T03:16:25.657Z,1036.14
2018-11-21T03:17:25.641Z,1036.14
2018-11-21T03:18:25.630Z,1036.21
2018-11-21T03:19:25.614Z,1036.15
2018-11-21T03:20:25.598Z,1036.12
2018-11-21T03:21:25.580Z,1036.2
2018-11-21T03:22:25.568Z,1036.13
2018-11-21T03:23:25.549Z,1036.09
2018-11-21T03:24:25.537Z,1036.17
2018-11-21T03:25:25.518Z,1036.12
2018-11-21T03:26:25.506Z,1036.19
2018-11-21T03:27:25.487Z,1036.18
2018-11-21T03:28:25.477Z,1036.18
2018-11-21T03:29:25.458Z,1036.21
2018-11-21T03:30:25.442Z,1036.26
2018-11-21T03:31:25.427Z,1036.2
2018-11-21T03:32:25.425Z,1036.23
2018-11-21T03:33:25.398Z,1036.25
2018-11-21T03:34:25.386Z,1036.22
2018-11-21T03:35:25.369Z,1036.34
2018-11-21T03:36:25.357Z,1036.21
2018-11-21T03:37:25.336Z,1036.27
2018-11-21T03:38:25.322Z,1036.28
2018-11-21T03:39:25.305Z,1036.37
2018-11-21T03:40:25.291Z,1036.28
2018-11-21T03:41:25.272Z,1036.26
2018-11-21T03:42:25.260Z,1036.22
2018-11-21T03:43:25.242Z,1036.26
2018-11-21T03:44:25.229Z,1036.29
2018-11-21T03:45:25.209Z,1036.23
2018-11-21T03:46:25.196Z,1036.31
2018-11-21T03:47:25.181Z,1036.23
2018-11-21T03:48:25.168Z,1036.2
2018-11-21T03:49:25.153Z,1036.22
2018-11-21T03:50:25.133Z,1036.21
2018-11-21T03:51:25.118Z,1036.28
2018-11-21T03:52:25.102Z,1036.28
2018-11-21T03:53:25.091Z,1036.26
2018-11-21T03:54:25.071Z,1036.26
2018-11-21T03:55:25.059Z,1036.2
2018-11-21T03:56:25.040Z,1036.22
2018-11-21T03:57:25.029Z,1036.21
2018-11-21T03:58:25.010Z,1036.17
2018-11-21T03:59:24.996Z,1036.18
2018-11-21T04:00:24.982Z,1036.2
2018-11-21T04:01:24.966Z,1036.19
2018-11-21T04:02:24.946Z,1036.24
2018-11-21T04:03:24.931Z,1036.33
2018-11-21T04:04:24.921Z,1036.27
2018-11-21T04:05:24.904Z,1036.3
2018-11-21T04:06:24.884Z,1036.27
2018-11-21T04:07:24.869Z,1036.26
2018-11-21T04:08:25.105Z,1036.24
2018-11-21T04:09:24.844Z,1036.3
2018-11-21T04:10:24.822Z,1036.26
2018-11-21T04:11:24.811Z,1036.28
2018-11-21T04:12:24.793Z,1036.37
2018-11-21T04:13:24.780Z,1036.29
2018-11-21T04:14:24.762Z,1036.29
2018-11-21T04:15:24.751Z,1036.34
2018-11-21T04:16:24.732Z,1036.39
2018-11-21T04:17:24.719Z,1036.39
2018-11-21T04:18:24.703Z,1036.37
2018-11-21T04:19:24.689Z,1036.37
2018-11-21T04:20:24.675Z,1036.42
2018-11-21T04:21:24.653Z,1036.38
2018-11-21T04:22:24.643Z,1036.42
2018-11-21T04:23:24.627Z,1036.49
2018-11-21T04:24:24.607Z,1036.55
2018-11-21T04:25:24.594Z,1036.52
2018-11-21T04:26:24.576Z,1036.54
2018-11-21T04:27:24.564Z,1036.56
2018-11-21T04:28:24.544Z,1036.63
2018-11-21T04:29:24.534Z,1036.61
2018-11-21T04:30:24.513Z,1036.57
2018-11-21T04:31:24.514Z,1036.51
2018-11-21T04:32:24.481Z,1036.49
2018-11-21T04:33:24.472Z,1036.46
2018-11-21T04:34:24.456Z,1036.5
2018-11-21T04:35:24.442Z,1036.49
2018-11-21T04:36:24.419Z,1036.47
2018-11-21T04:37:24.409Z,1036.51
2018-11-21T04:38:24.388Z,1036.51
2018-11-21T04:39:24.372Z,1036.49
2018-11-21T04:40:24.357Z,1036.45
2018-11-21T04:41:24.346Z,1036.41
2018-11-21T04:42:24.327Z,1036.39
2018-11-21T04:43:24.317Z,1036.35
2018-11-21T04:44:24.296Z,1036.38
2018-11-21T04:45:24.295Z,1036.34
2018-11-21T04:46:24.265Z,1036.35
2018-11-21T04:47:24.252Z,1036.36
2018-11-21T04:48:24.233Z,1036.4
2018-11-21T04:49:24.221Z,1036.39
2018-11-21T04:50:24.202Z,1036.34
2018-11-21T04:51:24.186Z,1036.39
2018-11-21T04:52:24.175Z,1036.38
2018-11-21T04:53:24.160Z,1036.43
2018-11-21T04:54:24.147Z,1036.37
2018-11-21T04:55:24.124Z,1036.47
2018-11-21T04:56:24.108Z,1036.46
2018-11-21T04:57:24.097Z,1036.41
2018-11-21T04:58:24.077Z,1036.47
2018-11-21T04:59:24.067Z,1036.42
2018-11-21T05:00:24.047Z,1036.51
2018-11-21T05:01:24.035Z,1036.4
2018-11-21T05:02:24.019Z,1036.44
2018-11-21T05:03:24.010Z,1036.48
2018-11-21T05:04:23.987Z,1036.49
2018-11-21T05:05:23.975Z,1036.5
2018-11-21T05:06:23.959Z,1036.51
2018-11-21T05:07:23.944Z,1036.48
2018-11-21T05:08:23.923Z,1036.5
2018-11-21T05:09:23.907Z,1036.43
2018-11-21T05:10:23.898Z,1036.47
2018-11-21T05:11:23.882Z,1036.47
2018-11-21T05:12:23.866Z,1036.45
2018-11-21T05:13:23.846Z,1036.48
2018-11-21T05:14:23.835Z,1036.48
2018-11-21T05:15:23.819Z,1036.47
2018-11-21T05:16:23.800Z,1036.44
2018-11-21T05:17:23.789Z,1036.44
2018-11-21T05:18:23.769Z,1036.39
2018-11-21T05:19:23.757Z,1036.45
2018-11-21T05:20:23.740Z,1036.37
2018-11-21T05:21:23.726Z,1036.32
2018-11-21T05:22:23.711Z,1036.33
2018-11-21T05:23:23.698Z,1036.36
2018-11-21T05:24:23.676Z,1036.31
2018-11-21T05:25:23.660Z,1036.35
2018-11-21T05:26:23.649Z,1036.35
2018-11-21T05:27:23.634Z,1036.31
2018-11-21T05:28:23.618Z,1036.33
2018-11-21T05:29:23.599Z,1036.28
2018-11-21T05:30:23.587Z,1036.25
2018-11-21T05:31:23.572Z,1036.27
2018-11-21T05:32:23.575Z,1036.26
2018-11-21T05:33:23.538Z,1036.3
2018-11-21T05:34:23.526Z,1036.32
2018-11-21T05:35:23.508Z,1036.42
2018-11-21T05:36:23.497Z,1036.39
2018-11-21T05:37:23.478Z,1036.45
2018-11-21T05:38:23.461Z,1036.5
2018-11-21T05:39:23.446Z,1036.49
2018-11-21T05:40:23.436Z,1036.58
2018-11-21T05:41:23.416Z,1036.58
2018-11-21T05:42:23.404Z,1036.6
2018-11-21T05:43:23.389Z,1036.68
2018-11-21T05:44:23.374Z,1036.73
2018-11-21T05:45:23.354Z,1036.67
2018-11-21T05:46:23.343Z,1036.68
2018-11-21T05:47:23.325Z,1036.69
2018-11-21T05:48:23.312Z,1036.7
2018-11-21T05:49:23.293Z,1036.72
2018-11-21T05:50:23.282Z,1036.76
2018-11-21T05:51:23.266Z,1036.81
2018-11-21T05:52:23.256Z,1036.78
2018-11-21T05:53:23.230Z,1036.74
2018-11-21T05:54:23.217Z,1036.79
2018-11-21T05:55:23.201Z,1036.8
2018-11-21T05:56:23.189Z,1036.86
2018-11-21T05:57:23.175Z,1036.81
2018-11-21T05:58:23.155Z,1036.79
2018-11-21T05:59:23.138Z,1036.84
2018-11-21T06:00:23.123Z,1036.89
2018-11-21T06:01:23.113Z,1036.85
2018-11-21T06:02:23.094Z,1036.81
2018-11-21T06:03:23.081Z,1036.81
2018-11-21T06:04:23.062Z,1036.86
2018-11-21T06:05:23.051Z,1036.81
2018-11-21T06:06:23.032Z,1036.8
2018-11-21T06:07:23.017Z,1036.93
2018-11-21T06:08:23.005Z,1036.92
2018-11-21T06:09:22.991Z,1037
2018-11-21T06:10:22.970Z,1037
2018-11-21T06:11:22.955Z,1037.04
2018-11-21T06:12:22.943Z,1037.04
2018-11-21T06:13:22.929Z,1037.02
2018-11-21T06:14:22.909Z,1037.04
2018-11-21T06:15:22.893Z,1037.06
2018-11-21T06:16:22.878Z,1037.11
2018-11-21T06:17:22.867Z,1037.06
2018-11-21T06:18:22.849Z,1037.04
2018-11-21T06:19:22.835Z,1037.09
2018-11-21T06:20:22.817Z,1037.1
2018-11-21T06:21:22.804Z,1037.13
2018-11-21T06:22:22.786Z,1037.09
2018-11-21T06:23:22.775Z,1037.07
2018-11-21T06:24:22.755Z,1037.05
2018-11-21T06:25:22.743Z,1037.13
2018-11-21T06:26:22.728Z,1037.08
2018-11-21T06:27:22.713Z,1037.11
2018-11-21T06:28:22.695Z,1037.11
2018-11-21T06:29:22.678Z,1037.13
2018-11-21T06:30:22.667Z,1037.21
2018-11-21T06:31:22.652Z,1037.23
2018-11-21T06:32:22.632Z,1037.25
2018-11-21T06:33:22.621Z,1037.32
2018-11-21T06:34:22.602Z,1037.29
2018-11-21T06:35:22.590Z,1037.3
2018-11-21T06:36:22.570Z,1037.27
2018-11-21T06:37:22.559Z,1037.24
2018-11-21T06:38:22.540Z,1037.24
2018-11-21T06:39:22.530Z,1037.22
2018-11-21T06:40:22.527Z,1037.18
2018-11-21T06:41:22.499Z,1037.19
2018-11-21T06:42:22.484Z,1037.24
2018-11-21T06:43:22.468Z,1037.29
2018-11-21T06:44:22.699Z,1037.38
2018-11-21T06:45:22.433Z,1037.29
2018-11-21T06:46:22.426Z,1037.32
2018-11-21T06:47:22.407Z,1037.28
2018-11-21T06:48:22.393Z,1037.23
2018-11-21T06:49:22.374Z,1037.22
2018-11-21T06:50:22.360Z,1037.21
2018-11-21T06:51:22.341Z,1037.18
2018-11-21T06:52:22.347Z,1037.17
2018-11-21T06:53:22.309Z,1037.13
2018-11-21T06:54:22.299Z,1037.17
2018-11-21T06:55:22.279Z,1037.21
2018-11-21T06:56:22.268Z,1037.16
2018-11-21T06:57:22.250Z,1037.21
2018-11-21T06:58:22.238Z,1037.19
2018-11-21T06:59:22.223Z,1037.34
2018-11-21T07:00:22.204Z,1037.26
2018-11-21T07:01:22.188Z,1037.34
2018-11-21T07:02:22.181Z,1037.34
2018-11-21T07:03:22.162Z,1037.35
2018-11-21T07:04:22.146Z,1037.32
2018-11-21T07:05:22.126Z,1037.32
2018-11-21T07:06:22.117Z,1037.42
2018-11-21T07:07:22.096Z,1037.36
2018-11-21T07:08:22.086Z,1037.39
2018-11-21T07:09:22.066Z,1037.42
2018-11-21T07:10:22.055Z,1037.39
2018-11-21T07:11:22.036Z,1037.41
2018-11-21T07:12:22.024Z,1037.46
2018-11-21T07:13:22.005Z,1037.47
2018-11-21T07:14:21.991Z,1037.51
2018-11-21T07:15:21.977Z,1037.56
2018-11-21T07:16:21.963Z,1037.56
2018-11-21T07:17:21.949Z,1037.52
2018-11-21T07:18:21.930Z,1037.55
2018-11-21T07:19:21.915Z,1037.66
2018-11-21T07:20:21.899Z,1037.55
2018-11-21T07:21:21.888Z,1037.56
2018-11-21T07:22:21.869Z,1037.63
2018-11-21T07:23:21.854Z,1037.57
2018-11-21T07:24:26.245Z,1037.49
2018-11-21T07:25:21.837Z,1037.61
2018-11-21T07:26:21.813Z,1037.52
2018-11-21T07:27:21.796Z,1037.62
2018-11-21T07:28:21.784Z,1037.55
2018-11-21T07:29:21.763Z,1037.91
2018-11-21T07:30:21.749Z,1037.64
2018-11-21T07:31:21.733Z,1037.56
2018-11-21T07:32:21.722Z,1037.57
2018-11-21T07:33:21.708Z,1037.57
2018-11-21T07:34:21.692Z,1037.53
2018-11-21T07:35:21.673Z,1037.61
2018-11-21T07:36:21.658Z,1037.59
2018-11-21T07:37:21.647Z,1037.59
2018-11-21T07:38:21.627Z,1037.54
2018-11-21T07:39:21.617Z,1037.55
2018-11-21T07:40:21.596Z,1037.52
2018-11-21T07:41:21.587Z,1037.45
2018-11-21T07:42:21.567Z,1037.43
2018-11-21T07:43:21.559Z,1037.38
2018-11-21T07:44:21.537Z,1037.36
2018-11-21T07:45:21.529Z,1037.36
2018-11-21T07:46:21.514Z,1037.38
2018-11-21T07:47:26.524Z,1037.38
2018-11-21T07:48:21.477Z,1037.37
2018-11-21T07:49:21.466Z,1037.3
2018-11-21T07:50:21.452Z,1037.32
2018-11-21T07:51:21.432Z,1037.31
2018-11-21T07:52:21.417Z,1037.35
2018-11-21T07:53:21.406Z,1037.35
2018-11-21T07:54:21.387Z,1037.42
2018-11-21T07:55:21.377Z,1037.37
2018-11-21T07:56:21.358Z,1037.37
2018-11-21T07:57:22.285Z,1037.43
2018-11-21T07:58:21.328Z,1037.41
2018-11-21T07:59:21.318Z,1037.38
2018-11-21T08:00:21.297Z,1037.36
2018-11-21T08:01:21.288Z,1037.37
2018-11-21T08:02:21.271Z,1037.31
2018-11-21T08:03:21.254Z,1037.17
2018-11-21T08:04:21.243Z,1037.15
2018-11-21T08:05:21.228Z,1037.08
2018-11-21T08:06:21.209Z,1037.08
2018-11-21T08:07:21.194Z,1037.08
2018-11-21T08:08:21.179Z,1037.12
2018-11-21T08:09:21.169Z,1037.06
2018-11-21T08:10:21.150Z,1037.03
2018-11-21T08:11:21.139Z,1037.04
2018-11-21T08:12:21.121Z,1037.06
2018-11-21T08:13:21.111Z,1037.05
2018-11-21T08:14:21.093Z,1037
2018-11-21T08:15:21.077Z,1037.16
2018-11-21T08:16:21.068Z,1037
2018-11-21T08:17:21.053Z,1037.05
2018-11-21T08:18:21.037Z,1037
2018-11-21T08:19:21.068Z,1037.05
2018-11-21T08:20:21.011Z,1037.03
2018-11-21T08:21:20.995Z,1037.09
2018-11-21T08:22:20.975Z,1036.97
2018-11-21T08:23:20.961Z,1037.03
2018-11-21T08:24:20.947Z,1037.05
2018-11-21T08:25:20.937Z,1037.1
2018-11-21T08:26:20.918Z,1037.04
2018-11-21T08:27:20.911Z,1037.07
2018-11-21T08:28:20.891Z,1037.11
2018-11-21T08:29:20.879Z,1037.04
2018-11-21T08:30:20.860Z,1037.07
2018-11-21T08:31:20.855Z,1037.11
2018-11-21T08:32:20.834Z,1037.04
2018-11-21T08:33:20.824Z,1037.16
2018-11-21T08:34:20.807Z,1037.08
2018-11-21T08:35:20.794Z,1037.2
2018-11-21T08:36:20.774Z,1037.16
2018-11-21T08:37:20.760Z,1037.16
2018-11-21T08:38:20.751Z,1037.18
2018-11-21T08:39:20.736Z,1037.23
2018-11-21T08:40:20.716Z,1037.25
2018-11-21T08:41:20.706Z,1037.31
2018-11-21T08:42:20.689Z,1037.28
2018-11-21T08:43:20.679Z,1037.36
2018-11-21T08:44:20.659Z,1037.36
2018-11-21T08:45:20.649Z,1037.33
2018-11-21T08:46:20.631Z,1037.29
2018-11-21T08:47:20.620Z,1037.28
2018-11-21T08:48:20.600Z,1037.37
2018-11-21T08:49:20.598Z,1037.28
2018-11-21T08:50:20.577Z,1037.31
2018-11-21T08:51:20.562Z,1037.37
2018-11-21T08:52:20.544Z,1037.32
2018-11-21T08:53:20.531Z,1037.45
2018-11-21T08:54:20.522Z,1037.49
2018-11-21T08:55:20.505Z,1037.49
2018-11-21T08:56:20.490Z,1037.5
2018-11-21T08:57:20.472Z,1037.44
2018-11-21T08:58:20.461Z,1037.49
2018-11-21T08:59:20.443Z,1037.44
2018-11-21T09:00:20.433Z,1037.46
2018-11-21T09:01:20.413Z,1037.49
2018-11-21T09:02:20.403Z,1037.44
2018-11-21T09:03:20.384Z,1037.46
2018-11-21T09:04:20.375Z,1037.45
2018-11-21T09:05:20.357Z,1037.37
2018-11-21T09:06:20.346Z,1037.37
2018-11-21T09:07:20.335Z,1037.42
2018-11-21T09:08:20.312Z,1037.36
2018-11-21T09:09:20.299Z,1037.39
2018-11-21T09:10:20.288Z,1037.46
2018-11-21T09:11:20.275Z,1037.39
2018-11-21T09:12:20.261Z,1037.44
2018-11-21T09:13:20.240Z,1037.56
2018-11-21T09:14:20.231Z,1037.45
2018-11-21T09:15:20.214Z,1037.52
2018-11-21T09:16:20.203Z,1037.49
2018-11-21T09:17:20.188Z,1037.54
2018-11-21T09:18:20.174Z,1037.56
2018-11-21T09:19:20.154Z,1037.54
2018-11-21T09:20:20.395Z,1037.55
2018-11-21T09:21:20.126Z,1037.54
2018-11-21T09:22:20.112Z,1037.55
2018-11-21T09:23:20.101Z,1037.48
2018-11-21T09:24:20.090Z,1037.49
2018-11-21T09:25:20.074Z,1037.48
2018-11-21T09:26:20.055Z,1037.48
2018-11-21T09:27:20.041Z,1037.51
2018-11-21T09:28:20.025Z,1037.52
2018-11-21T09:29:20.016Z,1037.57
2018-11-21T09:30:19.998Z,1037.59
2018-11-21T09:31:19.983Z,1037.64
2018-11-21T09:32:19.974Z,1037.69
2018-11-21T09:33:19.964Z,1037.75
2018-11-21T09:34:19.945Z,1037.71
2018-11-21T09:35:19.928Z,1037.76
2018-11-21T09:36:19.916Z,1037.81
2018-11-21T09:37:19.899Z,1037.86
2018-11-21T09:38:19.884Z,1037.89
2018-11-21T09:39:19.869Z,1037.9
2018-11-21T09:40:19.859Z,1037.85
2018-11-21T09:41:19.846Z,1037.92
2018-11-21T09:42:19.826Z,1037.84
2018-11-21T09:43:19.812Z,1037.84
2018-11-21T09:44:19.802Z,1037.91
2018-11-21T09:45:19.784Z,1038
2018-11-21T09:46:19.773Z,1038.01
2018-11-21T09:47:19.755Z,1038.1
2018-11-21T09:48:19.747Z,1038.11
2018-11-21T09:49:19.726Z,1038.13
2018-11-21T09:50:19.717Z,1038.15
2018-11-21T09:51:19.699Z,1038.16
2018-11-21T09:52:19.689Z,1038.17
2018-11-21T09:53:19.670Z,1038.26
2018-11-21T09:54:19.656Z,1038.24
2018-11-21T09:55:19.641Z,1038.19
2018-11-21T09:56:19.632Z,1038.28
2018-11-21T09:57:19.615Z,1038.33
2018-11-21T09:58:19.603Z,1038.3
2018-11-21T09:59:19.589Z,1038.33
2018-11-21T10:00:19.574Z,1038.42
2018-11-21T10:01:19.555Z,1038.34
2018-11-21T10:02:19.544Z,1038.36
2018-11-21T10:03:19.528Z,1038.35
2018-11-21T10:04:19.515Z,1038.35
2018-11-21T10:05:19.498Z,1038.39
2018-11-21T10:06:19.487Z,1038.31
2018-11-21T10:07:19.472Z,1038.34
2018-11-21T10:08:19.457Z,1038.38
2018-11-21T10:09:19.439Z,1038.32
2018-11-21T10:10:19.425Z,1038.34
2018-11-21T10:11:19.410Z,1038.33
2018-11-21T10:12:19.404Z,1038.35
2018-11-21T10:13:19.385Z,1038.39
2018-11-21T10:14:19.366Z,1038.38
2018-11-21T10:15:19.352Z,1038.34
2018-11-21T10:16:19.336Z,1038.5
2018-11-21T10:17:19.327Z,1038.39
2018-11-21T10:18:19.309Z,1038.42
2018-11-21T10:19:19.298Z,1038.44
2018-11-21T10:20:19.279Z,1038.43
2018-11-21T10:21:19.268Z,1038.42
2018-11-21T10:22:19.249Z,1038.59
2018-11-21T10:23:19.236Z,1038.46
2018-11-21T10:24:19.225Z,1038.56
2018-11-21T10:25:19.205Z,1038.54
2018-11-21T10:26:19.191Z,1038.57
2018-11-21T10:27:19.183Z,1038.44
2018-11-21T10:28:19.166Z,1038.52
2018-11-21T10:29:19.157Z,1038.55
2018-11-21T10:30:19.133Z,1038.46
2018-11-21T10:31:19.118Z,1038.43
2018-11-21T10:32:19.111Z,1038.48
2018-11-21T10:33:19.092Z,1038.44
2018-11-21T10:34:19.074Z,1038.52
2018-11-21T10:35:19.064Z,1038.43
2018-11-21T10:36:19.045Z,1038.51
2018-11-21T10:37:19.034Z,1038.52
2018-11-21T10:38:19.016Z,1038.47
2018-11-21T10:39:19.005Z,1038.49
2018-11-21T10:40:18.986Z,1038.42
2018-11-21T10:41:18.975Z,1038.5
2018-11-21T10:42:18.963Z,1038.44
2018-11-21T10:43:18.946Z,1038.46
2018-11-21T10:44:18.925Z,1038.42
2018-11-21T10:45:18.921Z,1038.42
2018-11-21T10:46:18.902Z,1038.4
2018-11-21T10:47:18.887Z,1038.42
2018-11-21T10:48:18.867Z,1038.39
2018-11-21T10:49:18.857Z,1038.35
2018-11-21T10:50:18.838Z,1038.3
2018-11-21T10:51:18.832Z,1038.41
2018-11-21T10:52:18.809Z,1038.29
2018-11-21T10:53:18.799Z,1038.28
2018-11-21T10:54:18.780Z,1038.3
2018-11-21T10:55:18.769Z,1038.32
2018-11-21T10:56:18.749Z,1038.32
2018-11-21T10:57:18.741Z,1038.29
2018-11-21T10:58:18.731Z,1038.29
2018-11-21T10:59:18.716Z,1038.3
2018-11-21T11:00:18.692Z,1038.31
2018-11-21T11:01:18.680Z,1038.25
2018-11-21T11:02:18.668Z,1038.39
2018-11-21T11:03:18.652Z,1038.43
2018-11-21T11:04:18.638Z,1038.35
2018-11-21T11:05:18.643Z,1038.33
2018-11-21T11:06:18.609Z,1038.27
2018-11-21T11:07:18.590Z,1038.21
2018-11-21T11:08:18.580Z,1038.18
2018-11-21T11:09:18.563Z,1038.18
2018-11-21T11:10:18.551Z,1038.11
2018-11-21T11:11:18.533Z,1038.15
2018-11-21T11:12:18.522Z,1038.11
2018-11-21T11:13:18.504Z,1038.02
2018-11-21T11:14:18.493Z,1037.89
2018-11-21T11:15:18.479Z,1037.91
2018-11-21T11:16:18.464Z,1037.9
2018-11-21T11:17:18.445Z,1037.71
2018-11-21T11:18:18.437Z,1037.66
2018-11-21T11:19:18.421Z,1037.58
2018-11-21T11:20:18.407Z,1037.57
2018-11-21T11:21:18.389Z,1037.53
2018-11-21T11:22:18.378Z,1037.45
2018-11-21T11:23:18.360Z,1037.44
2018-11-21T11:24:18.350Z,1037.59
2018-11-21T11:25:18.333Z,1037.46
2018-11-21T11:26:18.322Z,1037.42
2018-11-21T11:27:18.309Z,1037.47
2018-11-21T11:28:18.290Z,1037.34
2018-11-21T11:29:18.280Z,1037.32
2018-11-21T11:30:18.270Z,1037.34
2018-11-21T11:31:18.252Z,1037.34
2018-11-21T11:32:18.233Z,1037.26
2018-11-21T11:33:18.221Z,1037.33
2018-11-21T11:34:18.214Z,1037.33
2018-11-21T11:35:18.196Z,1037.42
2018-11-21T11:36:18.183Z,1037.32
2018-11-21T11:37:18.165Z,1037.42
2018-11-21T11:38:18.156Z,1037.43
2018-11-21T11:39:18.142Z,1037.57
2018-11-21T11:40:18.124Z,1037.53
2018-11-21T11:41:18.115Z,1037.52
2018-11-21T11:42:18.096Z,1037.55
2018-11-21T11:43:18.087Z,1037.61
2018-11-21T11:44:18.068Z,1037.59
2018-11-21T11:45:18.061Z,1037.58
2018-11-21T11:46:18.044Z,1037.58
2018-11-21T11:47:18.034Z,1037.57
2018-11-21T11:48:18.014Z,1037.78
2018-11-21T11:49:18.000Z,1037.69
2018-11-21T11:50:17.989Z,1037.75
2018-11-21T11:51:17.976Z,1037.79
2018-11-21T11:52:17.962Z,1037.87
2018-11-21T11:53:17.944Z,1037.87
2018-11-21T11:54:17.935Z,1037.89
2018-11-21T11:55:17.915Z,1037.93
2018-11-21T11:56:17.906Z,1037.91
2018-11-21T11:57:17.888Z,1037.93
2018-11-21T11:58:17.878Z,1037.96
2018-11-21T11:59:17.860Z,1037.91
2018-11-21T12:00:17.851Z,1037.94
2018-11-21T12:01:17.832Z,1037.96
2018-11-21T12:02:17.818Z,1037.99
2018-11-21T12:03:17.804Z,1038.01
2018-11-21T12:04:17.795Z,1037.96
2018-11-21T12:05:17.775Z,1037.97
2018-11-21T12:06:17.766Z,1038.01
2018-11-21T12:07:17.752Z,1037.98
2018-11-21T12:08:17.736Z,1037.93